Buffalo (BUF/KBUF)

Map

Information

Location
Buffalo, NY
Local Time
09:13 / 9:13 am
GMT Time
14:13 / 2:13 pm
Gates
Unassigned
No FAA reported delays
METAR KBUF 221354Z 07004KT 1/4SM R23/2200V2600FT FG OVC002 04/03 A2968 RMK AO2 SLP057 T00390033
TAF KBUF 221237Z 2213/2312 03006KT 1/4SM FG OVC002 FM221500 VRB03KT 3/4SM -DZ BR OVC003 FM221800 05005KT P6SM OVC070 FM222200 06009KT P6SM OVC007 FM230300 07010KT P6SM OVC003
  • No charts available